Terminal Aerodrome Forecast
Issued by NWS

Home | Current Version | Previous Version | Text Only | Print | Product List | Glossary On
Versions: 1 2 3 4 5 6 7 8 9 10 11 12 13 14 15 16 17 18
000
FTUS43 KIND 261100
TAFBMG
TAF
KBMG 261131Z 2612/2712 16006KT P6SM FEW007 BKN045
     FM261500 19010G18KT P6SM VCSH BKN025
     FM261900 19013G23KT P6SM VCTS BKN035CB
     FM270200 21009KT P6SM BKN025
     FM270700 22007KT 2SM BR BKN020
      AMD LTD TO CLD VIS AND WIND TIL 261300=

USA.gov is the U.S. government's official web portal to all federal, state and local government web resources and services.